Hordafor III — LLVC — position and weather

sailwx.info

Track history (hours):
 
Tides and Currents Weather Stations Pressure Air Temp Water Temp Dewpoint Dewpoint Depression Visibility Wind Speed Wind Dir Waves Ship Positions

Hordafor III

Last reported at 2015-May-02 21:11 UTC. Time now 2015-May-04 13:02 UTC.
Position N 62°43' E 006°58'.

Length 50 m.

Type: Ship. MMSI: 258044000.

Date/timePositionNaut miles runAvg speedWind from/ knotsBaromVisibWave heightAir tempDewpointWater temp
2015-May-02 21:11N 62°43' E 006°58'0 0.2
2015-May-02 20:08N 62°44' E 006°57'1 0.2
2015-May-02 17:22N 62°44' E 006°56'0 0.0
2015-May-02 16:30N 62°44' E 006°56'0 0.0
2015-May-02 03:10N 62°44' E 006°56'  
2015-Apr-29 19:05N 63°35' E 009°25'1011.0
2015-Apr-29 18:08N 63°45' E 009°32'7810.2
2015-Apr-29 10:30N 64°50' E 011°11'1010.4
2015-Apr-29 09:33N 64°56' E 011°28'1110.6
2015-Apr-29 08:29N 65°05' E 011°46'7210.1
2015-Apr-29 01:20N 66°14' E 012°35'7 8.9
2015-Apr-29 00:33N 66°19' E 012°23'2 2.5
2015-Apr-28 23:33N 66°22' E 012°23'0 0.0
2015-Apr-28 22:33N 66°22' E 012°23'0 0.0
2015-Apr-28 21:33N 66°22' E 012°23'0 0.0
2015-Apr-28 20:33N 66°22' E 012°23'4 4.1
2015-Apr-28 19:33N 66°18' E 012°22'3 2.8
2015-Apr-28 18:33N 66°21' E 012°24'1 1.5
2015-Apr-28 17:33N 66°22' E 012°23'0 0.0
2015-Apr-28 16:33N 66°22' E 012°23'0 0.0
2015-Apr-28 15:33N 66°22' E 012°23'0 0.0
2015-Apr-28 14:33N 66°22' E 012°23'0 0.0
2015-Apr-28 13:33N 66°22' E 012°23'0 0.0
2015-Apr-28 12:33N 66°22' E 012°23'0 0.0
2015-Apr-28 11:33N 66°22' E 012°23'1 0.8
2015-Apr-28 10:34N 66°21' E 012°24'9 8.5
2015-Apr-28 09:30N 66°14' E 012°36'8410.2
2015-Apr-28 01:15N 64°55' E 011°24'7 9.7
2015-Apr-28 00:33N 64°51' E 011°13'  
2015-Apr-24 13:16N 63°03' E 007°27'  
Track history (hours):
 
Tides and Currents Weather Stations Pressure Air Temp Water Temp Dewpoint Dewpoint Depression Visibility Wind Speed Wind Dir Waves Ship Positions

Hordafor III

Last reported at 2015-May-02 21:11 UTC. Time now 2015-May-04 13:02 UTC.
Position N 62°43' E 006°58'.

Length 50 m.

Type: Ship. MMSI: 258044000.

Date/timePositionNaut miles runAvg speedWind from/ knotsBaromVisibWave heightAir tempDewpointWater temp
2015-May-02 21:11N 62°43' E 006°58'0 0.2
2015-May-02 20:08N 62°44' E 006°57'1 0.2
2015-May-02 17:22N 62°44' E 006°56'0 0.0
2015-May-02 16:30N 62°44' E 006°56'0 0.0
2015-May-02 03:10N 62°44' E 006°56'  
2015-Apr-29 19:05N 63°35' E 009°25'1011.0
2015-Apr-29 18:08N 63°45' E 009°32'7810.2
2015-Apr-29 10:30N 64°50' E 011°11'1010.4
2015-Apr-29 09:33N 64°56' E 011°28'1110.6
2015-Apr-29 08:29N 65°05' E 011°46'7210.1
2015-Apr-29 01:20N 66°14' E 012°35'7 8.9
2015-Apr-29 00:33N 66°19' E 012°23'2 2.5
2015-Apr-28 23:33N 66°22' E 012°23'0 0.0
2015-Apr-28 22:33N 66°22' E 012°23'0 0.0
2015-Apr-28 21:33N 66°22' E 012°23'0 0.0
2015-Apr-28 20:33N 66°22' E 012°23'4 4.1
2015-Apr-28 19:33N 66°18' E 012°22'3 2.8
2015-Apr-28 18:33N 66°21' E 012°24'1 1.5
2015-Apr-28 17:33N 66°22' E 012°23'0 0.0
2015-Apr-28 16:33N 66°22' E 012°23'0 0.0
2015-Apr-28 15:33N 66°22' E 012°23'0 0.0
2015-Apr-28 14:33N 66°22' E 012°23'0 0.0
2015-Apr-28 13:33N 66°22' E 012°23'0 0.0
2015-Apr-28 12:33N 66°22' E 012°23'0 0.0
2015-Apr-28 11:33N 66°22' E 012°23'1 0.8
2015-Apr-28 10:34N 66°21' E 012°24'9 8.5
2015-Apr-28 09:30N 66°14' E 012°36'8410.2
2015-Apr-28 01:15N 64°55' E 011°24'7 9.7
2015-Apr-28 00:33N 64°51' E 011°13'  
2015-Apr-24 13:16N 63°03' E 007°27'  

Dump ship's entire track history